Time;durP1;ratioP1;P1;durP2;ratioP2;P2;SDS_P1;SDS_P2;PMS_P1;PMS_P2;Temp;Humidity;BMP_temperature;BMP_pressure;BME280_temperature;BME280_humidity;BME280_pressure;Samples;Min_cycle;Max_cycle;Signal;HPM_P1;HPM_P2
2022/11/16 00:02:27;;;;;;;48.95;43.53;;;;;;;;;;6119028;28;20535;-79
2022/11/16 00:05:29;;;;;;;35.80;32.28;;;;;;;;;;6113417;28;20047;-80
2022/11/16 00:08:33;;;;;;;42.42;37.67;;;;;;;;;;6100489;28;20511;-79
2022/11/16 00:11:36;;;;;;;45.53;40.75;;;;;;;;;;6115349;28;20047;-80
2022/11/16 00:14:38;;;;;;;30.58;26.15;;;;;;;;;;6119853;28;20083;-79
2022/11/16 00:17:40;;;;;;;96.10;70.43;;;;;;;;;;6117401;28;20059;-80
2022/11/16 00:20:41;;;;;;;16.55;13.65;;;;;;;;;;6113860;28;20043;-80
2022/11/16 00:23:43;;;;;;;91.85;65.95;;;;;;;;;;6114282;28;20062;-80
2022/11/16 00:26:46;;;;;;;46.35;39.55;;;;;;;;;;6117555;28;20040;-80
2022/11/16 00:29:47;;;;;;;49.42;41.60;;;;;;;;;;6111993;28;20108;-80
2022/11/16 00:32:49;;;;;;;14.13;11.57;;;;;;;;;;6093584;28;20960;-81
2022/11/16 00:35:51;;;;;;;26.13;21.38;;;;;;;;;;6109735;28;20072;-79
2022/11/16 00:38:54;;;;;;;22.30;19.95;;;;;;;;;;6095069;28;20427;-80
2022/11/16 00:41:56;;;;;;;25.00;22.42;;;;;;;;;;6097804;28;20345;-80
2022/11/16 00:44:57;;;;;;;33.88;30.70;;;;;;;;;;6111863;28;20043;-80
2022/11/16 00:47:59;;;;;;;11.20;8.60;;;;;;;;;;6122969;28;20089;-81
2022/11/16 00:51:02;;;;;;;32.08;28.60;;;;;;;;;;6099029;28;20043;-80
2022/11/16 00:54:06;;;;;;;23.02;20.58;;;;;;;;;;6087190;28;20414;-81
2022/11/16 00:57:09;;;;;;;28.02;19.33;;;;;;;;;;6098485;28;20047;-81
2022/11/16 01:00:12;;;;;;;18.15;14.57;;;;;;;;;;6104487;28;20074;-81
2022/11/16 01:03:14;;;;;;;9.57;5.28;;;;;;;;;;6104457;28;20066;-80
2022/11/16 01:06:16;;;;;;;19.30;16.77;;;;;;;;;;6088037;28;20126;-81
2022/11/16 01:09:18;;;;;;;9.45;5.22;;;;;;;;;;6112164;28;20419;-80
2022/11/16 01:12:21;;;;;;;11.27;6.78;;;;;;;;;;6107463;28;20054;-81
2022/11/16 01:15:25;;;;;;;16.52;9.80;;;;;;;;;;6142146;28;20084;-81
2022/11/16 01:18:27;;;;;;;17.63;15.02;;;;;;;;;;6136802;28;20125;-81
2022/11/16 01:21:28;;;;;;;19.10;14.90;;;;;;;;;;6100832;28;20760;-81
2022/11/16 01:24:30;;;;;;;22.70;17.35;;;;;;;;;;6121825;28;20749;-80
2022/11/16 01:27:32;;;;;;;21.15;17.48;;;;;;;;;;6131167;28;20734;-80
2022/11/16 01:30:36;;;;;;;9.85;5.30;;;;;;;;;;6133944;28;20526;-81
2022/11/16 01:33:42;;;;;;;8.50;5.07;;;;;;;;;;6106173;28;20063;-80
2022/11/16 01:36:59;;;;;;;12.40;9.77;;;;;;;;;;6101298;28;20062;-81
2022/11/16 01:40:06;;;;;;;9.07;5.25;;;;;;;;;;6111251;28;20104;-80
2022/11/16 01:43:23;;;;;;;11.07;5.68;;;;;;;;;;6122330;28;20078;-81
2022/11/16 01:46:31;;;;;;;7.95;5.18;;;;;;;;;;6096737;28;20465;-80
2022/11/16 01:49:40;;;;;;;10.73;5.82;;;;;;;;;;6120648;28;20051;-81
2022/11/16 01:52:55;;;;;;;10.05;5.45;;;;;;;;;;6134008;28;20762;-81
2022/11/16 01:55:59;;;;;;;11.75;6.50;;;;;;;;;;6104732;28;22726;-80
2022/11/16 01:59:07;;;;;;;10.27;5.82;;;;;;;;;;6107556;28;20054;-80
2022/11/16 02:02:09;;;;;;;18.58;13.23;;;;;;;;;;6114689;28;20047;-80
2022/11/16 02:05:16;;;;;;;18.25;12.02;;;;;;;;;;6113281;28;20043;-80
2022/11/16 02:12:26;;;;;;;11.35;6.45;;;;;;;;;;6130780;28;20062;-82
2022/11/16 02:15:44;;;;;;;13.20;6.78;;;;;;;;;;6121079;28;20138;-80
2022/11/16 02:19:23;;;;;;;14.48;7.82;;;;;;;;;;6113487;28;20051;-80
2022/11/16 02:22:55;;;;;;;16.23;7.50;;;;;;;;;;6114306;28;20135;-80
2022/11/16 02:26:34;;;;;;;12.13;6.72;;;;;;;;;;6117457;28;20418;-79
2022/11/16 02:29:43;;;;;;;11.65;7.65;;;;;;;;;;6126632;28;20122;-80
2022/11/16 02:32:54;;;;;;;16.08;7.90;;;;;;;;;;6138897;28;20172;-81
2022/11/16 02:35:59;;;;;;;11.05;6.70;;;;;;;;;;6120358;28;20118;-80
2022/11/16 02:39:07;;;;;;;16.80;10.18;;;;;;;;;;6117687;28;20054;-81
2022/11/16 02:42:13;;;;;;;19.25;8.60;;;;;;;;;;6097027;28;20035;-79
2022/11/16 02:45:21;;;;;;;17.38;13.27;;;;;;;;;;6103841;28;20070;-78
2022/11/16 02:48:30;;;;;;;18.10;13.18;;;;;;;;;;6101035;28;20052;-79
2022/11/16 02:51:35;;;;;;;46.20;41.45;;;;;;;;;;6110160;28;20138;-79
2022/11/16 02:54:37;;;;;;;57.10;45.95;;;;;;;;;;6109349;28;20043;-81
2022/11/16 02:57:59;;;;;;;41.77;37.67;;;;;;;;;;6123533;28;20216;-80
2022/11/16 03:01:07;;;;;;;66.20;54.33;;;;;;;;;;6119236;28;20058;-80
2022/11/16 03:04:38;;;;;;;56.95;49.00;;;;;;;;;;6122504;28;20043;-80
2022/11/16 03:07:48;;;;;;;104.63;75.97;;;;;;;;;;6104092;28;20039;-80
2022/11/16 03:14:19;;;;;;;113.90;80.88;;;;;;;;;;6108341;28;20096;-80
2022/11/16 03:17:31;;;;;;;123.13;85.63;;;;;;;;;;6101773;28;20534;-80
2022/11/16 03:20:34;;;;;;;110.68;79.22;;;;;;;;;;6118950;28;20125;-80
2022/11/16 03:23:37;;;;;;;93.93;69.00;;;;;;;;;;6121282;28;20438;-81
2022/11/16 03:26:49;;;;;;;40.42;36.03;;;;;;;;;;6105623;28;20043;-80
2022/11/16 03:29:52;;;;;;;;;;;;;;;;;;6113148;28;20094;-80
2022/11/16 03:33:20;;;;;;;53.83;46.15;;;;;;;;;;6129340;28;20252;-80
2022/11/16 03:36:29;;;;;;;30.88;27.45;;;;;;;;;;6107234;28;20322;-80
2022/11/16 03:39:36;;;;;;;21.60;17.55;;;;;;;;;;6118242;28;20427;-80
2022/11/16 03:42:41;;;;;;;33.45;28.33;;;;;;;;;;6116154;28;20047;-80
2022/11/16 03:45:45;;;;;;;12.57;7.10;;;;;;;;;;6136440;28;20431;-79
2022/11/16 03:48:47;;;;;;;10.57;5.97;;;;;;;;;;6124050;28;20050;-80
2022/11/16 03:51:58;;;;;;;11.15;5.45;;;;;;;;;;6110910;28;20059;-80
2022/11/16 03:55:00;;;;;;;15.50;6.93;;;;;;;;;;6103979;28;20450;-79
2022/11/16 03:58:01;;;;;;;17.00;12.52;;;;;;;;;;6109855;28;20697;-80
2022/11/16 04:01:03;;;;;;;53.15;46.95;;;;;;;;;;6157688;28;20131;-81
2022/11/16 04:04:05;;;;;;;50.88;45.15;;;;;;;;;;6183976;28;20055;-81
2022/11/16 04:24:12;;;;;;;8.52;5.00;;;;;;;;;;6105861;28;20055;-81
2022/11/16 04:40:43;;;;;;;13.27;7.25;;;;;;;;;;6123678;28;20057;-81
2022/11/16 04:43:46;;;;;;;30.60;27.83;;;;;;;;;;6110267;28;20407;-80
2022/11/16 04:47:06;;;;;;;24.05;17.73;;;;;;;;;;6127981;28;20411;-80
2022/11/16 04:50:11;;;;;;;36.08;30.20;;;;;;;;;;6101957;28;20074;-81
2022/11/16 04:53:14;;;;;;;16.25;8.02;;;;;;;;;;6126777;28;20055;-80
2022/11/16 04:56:20;;;;;;;16.33;8.88;;;;;;;;;;6122837;28;20069;-80
2022/11/16 04:59:22;;;;;;;19.37;10.93;;;;;;;;;;6121292;28;20047;-80
2022/11/16 05:02:24;;;;;;;20.43;13.83;;;;;;;;;;6133551;28;20036;-80
2022/11/16 05:05:30;;;;;;;15.05;8.35;;;;;;;;;;6089082;28;20511;-80
2022/11/16 05:08:33;;;;;;;12.68;7.20;;;;;;;;;;6115445;28;20128;-80
2022/11/16 05:11:37;;;;;;;14.73;7.28;;;;;;;;;;6146386;28;20045;-80
2022/11/16 05:14:40;;;;;;;14.50;7.20;;;;;;;;;;6095216;28;20398;-80
2022/11/16 05:17:42;;;;;;;13.07;6.57;;;;;;;;;;6116249;28;20481;-81
2022/11/16 05:21:00;;;;;;;10.98;6.47;;;;;;;;;;6109981;28;20086;-80
2022/11/16 05:27:32;;;;;;;14.02;10.43;;;;;;;;;;6146048;28;20047;-80
2022/11/16 05:30:34;;;;;;;14.88;7.97;;;;;;;;;;6106139;28;20047;-81
2022/11/16 05:33:37;;;;;;;;;;;;;;;;;;6105645;28;20773;-80
2022/11/16 05:36:39;;;;;;;13.10;7.32;;;;;;;;;;6118890;28;19933;-81
2022/11/16 05:39:41;;;;;;;11.63;7.68;;;;;;;;;;6125578;28;20044;-81
2022/11/16 05:42:43;;;;;;;16.98;14.63;;;;;;;;;;6121232;28;20161;-80
2022/11/16 05:45:45;;;;;;;19.08;17.08;;;;;;;;;;6123985;28;21263;-81
2022/11/16 05:48:49;;;;;;;16.63;11.45;;;;;;;;;;6104982;28;20047;-80
2022/11/16 05:51:51;;;;;;;14.00;6.10;;;;;;;;;;6118369;28;20054;-81
2022/11/16 05:54:55;;;;;;;18.05;13.27;;;;;;;;;;6107878;28;20065;-81
2022/11/16 05:57:56;;;;;;;14.25;7.60;;;;;;;;;;6120525;28;20043;-81
2022/11/16 06:00:58;;;;;;;15.73;6.90;;;;;;;;;;6126771;28;20051;-81
2022/11/16 06:04:01;;;;;;;16.35;7.25;;;;;;;;;;6138506;28;20054;-80
2022/11/16 06:07:05;;;;;;;20.48;7.78;;;;;;;;;;6112131;28;20067;-81
2022/11/16 06:10:09;;;;;;;39.22;33.53;;;;;;;;;;6104963;28;20395;-81
2022/11/16 06:13:16;;;;;;;40.47;33.50;;;;;;;;;;6119689;28;20059;-81
2022/11/16 06:16:18;;;;;;;49.83;43.05;;;;;;;;;;6108413;28;20104;-81
2022/11/16 06:19:20;;;;;;;47.63;40.17;;;;;;;;;;6090473;28;20503;-81
2022/11/16 06:22:25;;;;;;;47.17;39.15;;;;;;;;;;6128852;28;20055;-82
2022/11/16 06:25:29;;;;;;;33.38;29.70;;;;;;;;;;6124639;28;20066;-81
2022/11/16 06:28:32;;;;;;;10.25;5.82;;;;;;;;;;6090286;28;20204;-81
2022/11/16 06:31:34;;;;;;;13.48;6.00;;;;;;;;;;6108676;28;20081;-81
2022/11/16 06:34:37;;;;;;;16.38;5.63;;;;;;;;;;6104723;28;20066;-82
2022/11/16 06:37:38;;;;;;;9.68;4.45;;;;;;;;;;6109676;28;20046;-82
2022/11/16 06:40:41;;;;;;;7.87;4.90;;;;;;;;;;6133056;28;20081;-82
2022/11/16 06:43:43;;;;;;;13.27;6.57;;;;;;;;;;6106964;28;21059;-81
2022/11/16 06:46:45;;;;;;;8.55;4.63;;;;;;;;;;6104337;28;20096;-81
2022/11/16 06:49:46;;;;;;;13.02;9.07;;;;;;;;;;6129857;28;20058;-82
2022/11/16 06:52:54;;;;;;;7.47;4.50;;;;;;;;;;6129217;28;20054;-81
2022/11/16 06:56:04;;;;;;;20.83;18.77;;;;;;;;;;6102368;28;20100;-81
2022/11/16 06:59:12;;;;;;;19.40;16.02;;;;;;;;;;6108329;28;20503;-81
2022/11/16 07:02:14;;;;;;;30.73;25.10;;;;;;;;;;6111162;28;20051;-80
2022/11/16 07:05:18;;;;;;;36.35;32.65;;;;;;;;;;6138065;28;20050;-83
2022/11/16 07:08:21;;;;;;;26.58;24.00;;;;;;;;;;6135752;28;20051;-81
2022/11/16 07:11:22;;;;;;;22.42;19.35;;;;;;;;;;6133047;28;20513;-82
2022/11/16 07:14:25;;;;;;;43.27;38.60;;;;;;;;;;6139984;28;20051;-83
2022/11/16 07:17:26;;;;;;;55.00;47.30;;;;;;;;;;6138137;28;20471;-83
2022/11/16 07:20:36;;;;;;;70.82;57.13;;;;;;;;;;6335255;27;1561489;-84
2022/11/16 07:23:39;;;;;;;82.70;64.10;;;;;;;;;;6376240;27;20543;-83
2022/11/16 07:26:43;;;;;;;40.55;36.55;;;;;;;;;;6361667;27;20039;-83
2022/11/16 07:29:50;;;;;;;52.47;45.78;;;;;;;;;;6361593;27;20053;-83
2022/11/16 07:33:06;;;;;;;70.68;57.38;;;;;;;;;;6358482;27;20414;-83
2022/11/16 07:36:46;;;;;;;62.53;53.20;;;;;;;;;;6288234;28;20051;-84
2022/11/16 07:39:49;;;;;;;;;;;;;;;;;;6273108;28;20225;-83
2022/11/16 07:42:51;;;;;;;55.60;40.17;;;;;;;;;;6384713;27;19919;-83
2022/11/16 07:46:12;;;;;;;13.88;12.50;;;;;;;;;;6378378;27;20117;-85
2022/11/16 07:49:34;;;;;;;31.30;28.00;;;;;;;;;;6374884;27;20042;-82
2022/11/16 07:52:45;;;;;;;41.67;37.45;;;;;;;;;;6375477;27;20053;-84
2022/11/16 07:55:53;;;;;;;47.20;41.45;;;;;;;;;;6368933;27;20103;-83
2022/11/16 07:58:57;;;;;;;25.90;22.60;;;;;;;;;;6361213;27;20061;-83
2022/11/16 08:01:59;;;;;;;110.10;77.60;;;;;;;;;;6356985;27;20142;-83
2022/11/16 08:05:01;;;;;;;59.60;51.30;;;;;;;;;;6363639;27;20084;-82
2022/11/16 08:08:03;;;;;;;38.38;34.38;;;;;;;;;;6345109;27;20031;-84
2022/11/16 08:11:10;;;;;;;33.00;30.10;;;;;;;;;;6357015;27;22340;-83
2022/11/16 08:14:12;;;;;;;53.40;47.38;;;;;;;;;;6346564;27;20045;-83
2022/11/16 08:17:14;;;;;;;83.77;62.40;;;;;;;;;;6379339;27;20121;-83
2022/11/16 08:20:17;;;;;;;100.00;70.95;;;;;;;;;;6359739;27;20059;-83
2022/11/16 08:23:20;;;;;;;89.15;66.07;;;;;;;;;;6357317;27;20406;-83
2022/11/16 08:26:22;;;;;;;69.22;55.97;;;;;;;;;;6340710;27;20050;-83
2022/11/16 08:29:32;;;;;;;67.85;54.97;;;;;;;;;;6347183;27;20035;-83
2022/11/16 08:32:36;;;;;;;91.88;67.57;;;;;;;;;;6345798;27;20065;-82
2022/11/16 08:35:38;;;;;;;91.40;68.18;;;;;;;;;;6346902;27;20042;-82
2022/11/16 08:38:41;;;;;;;84.97;64.67;;;;;;;;;;6333469;27;20062;-83
2022/11/16 08:41:43;;;;;;;68.05;55.20;;;;;;;;;;6343059;27;20822;-83
2022/11/16 08:44:45;;;;;;;87.55;64.25;;;;;;;;;;6326712;27;20066;-83
2022/11/16 08:47:51;;;;;;;75.95;59.45;;;;;;;;;;6335393;27;20051;-83
2022/11/16 08:51:06;;;;;;;116.13;79.40;;;;;;;;;;6322870;27;20043;-83
2022/11/16 08:54:23;;;;;;;112.28;77.95;;;;;;;;;;6344310;27;20043;-83
2022/11/16 08:57:26;;;;;;;168.52;110.22;;;;;;;;;;6342778;27;20110;-83
2022/11/16 09:00:32;;;;;;;143.15;96.40;;;;;;;;;;6328516;27;20054;-82
2022/11/16 09:03:33;;;;;;;124.07;85.15;;;;;;;;;;6360848;27;20098;-83
2022/11/16 09:06:35;;;;;;;203.45;127.80;;;;;;;;;;6360333;27;20054;-84
2022/11/16 09:09:37;;;;;;;145.93;97.38;;;;;;;;;;6335195;27;20130;-83
2022/11/16 09:12:39;;;;;;;188.73;119.70;;;;;;;;;;6354149;27;20130;-82
2022/11/16 09:15:41;;;;;;;169.45;110.30;;;;;;;;;;6332962;27;20062;-83
2022/11/16 09:18:45;;;;;;;66.50;54.05;;;;;;;;;;6361168;27;20063;-83
2022/11/16 09:21:47;;;;;;;67.43;55.28;;;;;;;;;;6339708;27;20035;-83
2022/11/16 09:24:49;;;;;;;74.03;57.22;;;;;;;;;;6332055;27;20050;-83
2022/11/16 09:27:53;;;;;;;74.10;56.20;;;;;;;;;;6342307;27;20145;-83
2022/11/16 09:30:59;;;;;;;57.80;49.05;;;;;;;;;;6325145;27;22691;-83
2022/11/16 09:34:02;;;;;;;50.63;41.72;;;;;;;;;;6351791;27;20154;-83
2022/11/16 09:37:03;;;;;;;59.60;49.55;;;;;;;;;;6351141;27;20156;-83
2022/11/16 09:40:06;;;;;;;54.50;45.28;;;;;;;;;;6338107;27;20130;-83
2022/11/16 09:43:26;;;;;;;42.97;29.98;;;;;;;;;;6337943;27;20565;-83
2022/11/16 09:46:35;;;;;;;53.70;44.33;;;;;;;;;;6319942;27;20052;-83
2022/11/16 09:49:42;;;;;;;74.78;58.63;;;;;;;;;;6347003;27;20043;-82
2022/11/16 09:52:49;;;;;;;73.65;54.47;;;;;;;;;;6359704;27;20042;-83
2022/11/16 09:56:02;;;;;;;57.45;45.90;;;;;;;;;;6347503;27;20051;-83
2022/11/16 09:59:16;;;;;;;66.05;53.25;;;;;;;;;;6335213;27;20168;-83
2022/11/16 10:02:27;;;;;;;77.38;58.38;;;;;;;;;;6332985;27;20043;-80
2022/11/16 10:05:42;;;;;;;78.68;59.22;;;;;;;;;;6343951;27;20063;-82
2022/11/16 10:08:50;;;;;;;72.95;56.85;;;;;;;;;;6347704;27;20046;-82
2022/11/16 10:12:01;;;;;;;67.57;51.35;;;;;;;;;;6328327;27;20072;-82
2022/11/16 10:15:34;;;;;;;86.82;61.67;;;;;;;;;;6341214;27;20066;-82
2022/11/16 10:18:48;;;;;;;84.55;62.80;;;;;;;;;;6354039;27;20043;-82
2022/11/16 10:22:17;;;;;;;92.20;66.25;;;;;;;;;;6363592;27;20091;-81
2022/11/16 10:25:21;;;;;;;85.85;63.80;;;;;;;;;;6336299;27;20046;-82
2022/11/16 10:28:54;;;;;;;100.72;67.82;;;;;;;;;;6345335;27;20042;-83
2022/11/16 10:32:07;;;;;;;86.72;63.55;;;;;;;;;;6342445;27;20506;-82
2022/11/16 10:35:09;;;;;;;;;;;;;;;;;;6352825;27;20287;-82
2022/11/16 10:38:16;;;;;;;83.75;61.78;;;;;;;;;;6362746;27;20393;-83
2022/11/16 10:41:27;;;;;;;110.10;74.53;;;;;;;;;;6338942;27;20070;-83
2022/11/16 10:44:35;;;;;;;119.00;77.55;;;;;;;;;;6344253;27;20631;-82
2022/11/16 10:47:59;;;;;;;89.63;63.17;;;;;;;;;;6334125;27;20042;-83
2022/11/16 10:51:00;;;;;;;64.03;52.63;;;;;;;;;;6354104;27;20051;-82
2022/11/16 10:54:14;;;;;;;75.15;57.67;;;;;;;;;;6337611;27;20038;-84
2022/11/16 10:57:16;;;;;;;69.00;55.15;;;;;;;;;;6345304;27;20506;-82
2022/11/16 11:00:32;;;;;;;46.60;40.03;;;;;;;;;;6350819;27;20055;-82
2022/11/16 11:03:34;;;;;;;44.25;35.35;;;;;;;;;;6330248;27;20129;-82
2022/11/16 11:06:37;;;;;;;45.13;39.73;;;;;;;;;;6350838;27;20051;-84
2022/11/16 11:09:42;;;;;;;64.68;52.85;;;;;;;;;;6325187;27;20420;-82
2022/11/16 11:13:09;;;;;;;56.97;44.03;;;;;;;;;;6342643;27;20074;-82
2022/11/16 11:16:16;;;;;;;65.13;51.65;;;;;;;;;;6352238;27;20127;-82
2022/11/16 11:19:23;;;;;;;72.65;55.88;;;;;;;;;;6327971;27;20031;-83
2022/11/16 11:22:25;;;;;;;68.03;52.50;;;;;;;;;;6362263;27;20043;-83
2022/11/16 11:25:31;;;;;;;65.37;51.83;;;;;;;;;;6321797;27;20117;-84
2022/11/16 11:28:45;;;;;;;51.55;43.20;;;;;;;;;;6347353;27;20043;-82
2022/11/16 11:31:50;;;;;;;25.33;22.27;;;;;;;;;;6335155;27;20042;-83
2022/11/16 11:34:53;;;;;;;27.58;22.77;;;;;;;;;;6333220;27;20049;-82
2022/11/16 11:37:59;;;;;;;39.72;29.85;;;;;;;;;;6360456;27;20047;-82
2022/11/16 11:41:17;;;;;;;26.02;22.83;;;;;;;;;;6342830;27;20043;-82
2022/11/16 11:44:19;;;;;;;40.40;31.92;;;;;;;;;;6348277;27;20491;-82
2022/11/16 11:47:43;;;;;;;43.35;36.50;;;;;;;;;;6357555;27;20051;-84
2022/11/16 11:51:09;;;;;;;44.67;38.08;;;;;;;;;;6346516;27;20055;-83
2022/11/16 11:54:23;;;;;;;37.08;33.17;;;;;;;;;;6327665;27;20194;-83
2022/11/16 11:57:25;;;;;;;47.90;40.15;;;;;;;;;;6341431;27;20102;-83
2022/11/16 12:00:39;;;;;;;32.65;24.88;;;;;;;;;;6340580;27;20047;-84
2022/11/16 12:04:09;;;;;;;59.60;45.58;;;;;;;;;;6331400;27;20042;-84
2022/11/16 12:07:41;;;;;;;74.75;56.75;;;;;;;;;;6342874;27;20067;-79
2022/11/16 12:10:54;;;;;;;70.95;54.15;;;;;;;;;;6301322;22;20057;-81
2022/11/16 12:14:33;;;;;;;54.95;43.05;;;;;;;;;;6231575;28;20054;-80
2022/11/16 12:17:43;;;;;;;38.22;34.13;;;;;;;;;;6242131;28;20042;-81
2022/11/16 12:20:54;;;;;;;27.77;24.35;;;;;;;;;;6239893;28;20633;-81
2022/11/16 12:24:20;;;;;;;32.33;28.65;;;;;;;;;;6220863;28;20403;-80
2022/11/16 12:28:02;;;;;;;46.47;39.72;;;;;;;;;;6245412;28;22065;-80
2022/11/16 12:31:22;;;;;;;58.28;48.90;;;;;;;;;;6238614;28;20122;-83
2022/11/16 12:34:44;;;;;;;70.90;57.03;;;;;;;;;;6238775;28;20131;-81
2022/11/16 12:38:16;;;;;;;82.50;60.22;;;;;;;;;;6223678;28;20560;-81
2022/11/16 12:41:59;;;;;;;88.40;64.07;;;;;;;;;;6259163;28;20057;-80
2022/11/16 12:45:22;;;;;;;86.35;63.67;;;;;;;;;;6245692;28;20055;-81
2022/11/16 12:48:54;;;;;;;91.15;66.88;;;;;;;;;;6252162;28;20045;-81
2022/11/16 12:51:56;;;;;;;106.07;74.13;;;;;;;;;;6241915;28;20046;-81
2022/11/16 12:55:18;;;;;;;107.28;74.53;;;;;;;;;;6238570;28;20403;-81
2022/11/16 12:59:06;;;;;;;124.72;82.78;;;;;;;;;;6225190;28;20056;-81
2022/11/16 13:02:28;;;;;;;112.18;75.88;;;;;;;;;;6229514;28;20554;-81
2022/11/16 13:05:51;;;;;;;117.18;79.32;;;;;;;;;;6239702;28;21446;-81
2022/11/16 13:09:05;;;;;;;117.97;79.35;;;;;;;;;;6242482;28;20112;-82
2022/11/16 13:12:14;;;;;;;109.47;75.00;;;;;;;;;;6237074;28;20182;-81
2022/11/16 13:15:20;;;;;;;120.00;80.82;;;;;;;;;;6241748;28;20053;-81
2022/11/16 13:18:24;;;;;;;103.68;72.95;;;;;;;;;;6241955;28;20148;-81
2022/11/16 13:21:37;;;;;;;109.65;75.00;;;;;;;;;;6250226;28;20060;-82
2022/11/16 13:24:49;;;;;;;87.60;63.53;;;;;;;;;;6235923;28;20037;-82
2022/11/16 13:27:51;;;;;;;101.00;70.30;;;;;;;;;;6243294;28;20052;-82
2022/11/16 13:31:07;;;;;;;96.03;68.35;;;;;;;;;;6245576;28;20183;-82
2022/11/16 13:34:22;;;;;;;89.95;65.18;;;;;;;;;;6258705;28;22011;-82
2022/11/16 13:37:33;;;;;;;100.32;69.97;;;;;;;;;;6259608;28;20057;-83
2022/11/16 13:40:34;;;;;;;87.25;63.35;;;;;;;;;;6256967;28;20045;-81
2022/11/16 13:43:46;;;;;;;70.03;55.03;;;;;;;;;;6263508;28;20053;-81
2022/11/16 13:47:03;;;;;;;96.25;68.47;;;;;;;;;;6250210;28;20128;-82
2022/11/16 13:50:17;;;;;;;97.72;68.85;;;;;;;;;;6241910;28;20567;-81
2022/11/16 13:53:45;;;;;;;107.10;75.32;;;;;;;;;;6242144;28;20518;-82
2022/11/16 13:57:30;;;;;;;100.82;71.63;;;;;;;;;;6236112;28;20045;-83
2022/11/16 14:00:34;;;;;;;120.78;80.43;;;;;;;;;;6229531;28;20045;-82
2022/11/16 14:03:40;;;;;;;129.60;85.32;;;;;;;;;;6226355;28;20042;-82
2022/11/16 14:06:42;;;;;;;126.32;84.28;;;;;;;;;;6223095;28;20184;-83
2022/11/16 14:09:46;;;;;;;106.90;74.35;;;;;;;;;;6243869;28;20103;-81
2022/11/16 14:12:53;;;;;;;81.53;56.30;;;;;;;;;;6239626;28;20136;-81
2022/11/16 14:16:24;;;;;;;83.20;61.72;;;;;;;;;;6244037;28;20056;-81
2022/11/16 14:19:47;;;;;;;25.45;22.85;;;;;;;;;;6212675;28;20169;-81
2022/11/16 14:23:10;;;;;;;92.32;64.28;;;;;;;;;;6227052;28;20120;-82
2022/11/16 14:26:21;;;;;;;99.40;71.93;;;;;;;;;;6238269;28;20041;-82
2022/11/16 14:29:36;;;;;;;126.80;84.90;;;;;;;;;;6242863;28;20590;-82
2022/11/16 14:32:49;;;;;;;114.00;77.60;;;;;;;;;;6236730;28;20041;-82
2022/11/16 14:35:52;;;;;;;106.60;75.53;;;;;;;;;;6234161;28;20049;-82
2022/11/16 14:38:54;;;;;;;112.35;77.95;;;;;;;;;;6240542;28;22068;-82
2022/11/16 14:42:00;;;;;;;104.45;73.80;;;;;;;;;;6238440;28;20227;-82
2022/11/16 14:45:12;;;;;;;99.43;69.70;;;;;;;;;;6230567;28;20053;-81
2022/11/16 14:48:16;;;;;;;95.22;70.10;;;;;;;;;;6240945;28;20077;-82
2022/11/16 14:51:37;;;;;;;98.82;71.60;;;;;;;;;;6237686;28;20049;-81
2022/11/16 14:54:55;;;;;;;101.00;72.25;;;;;;;;;;6235878;28;20053;-83
2022/11/16 14:58:12;;;;;;;105.13;73.95;;;;;;;;;;6213759;28;20400;-83
2022/11/16 15:01:16;;;;;;;106.95;72.60;;;;;;;;;;6234827;28;20179;-83
2022/11/16 15:04:21;;;;;;;123.88;84.75;;;;;;;;;;6237507;28;20049;-83
2022/11/16 15:07:24;;;;;;;112.20;77.20;;;;;;;;;;6234688;28;20042;-83
2022/11/16 15:10:28;;;;;;;108.13;75.10;;;;;;;;;;6236082;28;20072;-82
2022/11/16 15:13:29;;;;;;;124.40;84.68;;;;;;;;;;6235029;28;20045;-84
2022/11/16 15:16:31;;;;;;;118.05;80.65;;;;;;;;;;6215435;28;20661;-83
2022/11/16 15:19:33;;;;;;;99.18;71.55;;;;;;;;;;6232081;28;20058;-84
2022/11/16 15:22:40;;;;;;;103.43;72.57;;;;;;;;;;6241832;28;20195;-83
2022/11/16 15:25:51;;;;;;;94.25;65.45;;;;;;;;;;6240476;28;20495;-83
2022/11/16 15:28:54;;;;;;;100.25;70.85;;;;;;;;;;6235317;28;20537;-83
2022/11/16 15:31:55;;;;;;;99.55;71.82;;;;;;;;;;6223949;28;20114;-82
2022/11/16 15:34:57;;;;;;;92.45;68.57;;;;;;;;;;6228514;28;20053;-83
2022/11/16 15:38:21;;;;;;;74.40;59.78;;;;;;;;;;6235670;28;20080;-83
2022/11/16 15:41:26;;;;;;;89.82;66.00;;;;;;;;;;6238762;28;20037;-83
2022/11/16 15:44:29;;;;;;;77.32;59.15;;;;;;;;;;6223984;28;20662;-83
2022/11/16 15:47:31;;;;;;;71.75;57.10;;;;;;;;;;6220119;28;20346;-84
2022/11/16 15:50:33;;;;;;;56.15;45.15;;;;;;;;;;6238023;28;20207;-84
2022/11/16 15:53:43;;;;;;;68.93;52.70;;;;;;;;;;6239184;28;20053;-81
2022/11/16 15:56:45;;;;;;;67.38;53.33;;;;;;;;;;6226386;28;20045;-83
2022/11/16 15:59:49;;;;;;;51.28;37.28;;;;;;;;;;6225038;28;20128;-83
2022/11/16 16:02:51;;;;;;;57.63;48.88;;;;;;;;;;6223696;28;20580;-83
2022/11/16 16:05:53;;;;;;;64.72;53.92;;;;;;;;;;6241575;28;20049;-83
2022/11/16 16:09:28;;;;;;;10.95;4.10;;;;;;;;;;6238348;28;20053;-83
2022/11/16 16:12:30;;;;;;;11.75;3.92;;;;;;;;;;6218604;28;20137;-82
2022/11/16 16:15:35;;;;;;;31.02;28.08;;;;;;;;;;6226412;28;20050;-83
2022/11/16 16:18:42;;;;;;;42.67;37.92;;;;;;;;;;6236326;28;20094;-82
2022/11/16 16:21:45;;;;;;;60.47;49.17;;;;;;;;;;6230585;28;20125;-82
2022/11/16 16:24:47;;;;;;;67.00;53.75;;;;;;;;;;6217916;28;20128;-83
2022/11/16 16:27:51;;;;;;;44.17;37.53;;;;;;;;;;6230633;28;20508;-83
2022/11/16 16:30:53;;;;;;;73.72;57.80;;;;;;;;;;6210284;28;20095;-82
2022/11/16 16:33:55;;;;;;;64.43;53.35;;;;;;;;;;6226585;28;20044;-82
2022/11/16 16:36:56;;;;;;;70.35;56.90;;;;;;;;;;6233563;28;20087;-83
2022/11/16 16:39:59;;;;;;;80.95;60.47;;;;;;;;;;6219544;28;20045;-83
2022/11/16 16:43:01;;;;;;;70.73;55.37;;;;;;;;;;6240011;28;20049;-83
2022/11/16 16:46:03;;;;;;;84.00;63.72;;;;;;;;;;6240113;28;20448;-83
2022/11/16 16:49:06;;;;;;;90.20;65.72;;;;;;;;;;6266763;28;20045;-81
2022/11/16 16:52:10;;;;;;;70.43;55.55;;;;;;;;;;6243921;28;20095;-83
2022/11/16 16:55:12;;;;;;;88.18;66.55;;;;;;;;;;6242781;28;20047;-84
2022/11/16 16:58:14;;;;;;;85.30;64.72;;;;;;;;;;6219219;28;20045;-82
2022/11/16 17:01:23;;;;;;;73.83;57.90;;;;;;;;;;6220912;28;20053;-83
2022/11/16 17:04:25;;;;;;;67.05;53.47;;;;;;;;;;6222556;28;20049;-82
2022/11/16 17:07:27;;;;;;;70.07;55.78;;;;;;;;;;6232340;28;20136;-84
2022/11/16 17:10:29;;;;;;;82.85;60.38;;;;;;;;;;6238197;28;20408;-83
2022/11/16 17:13:31;;;;;;;82.28;62.10;;;;;;;;;;6239009;28;20171;-82
2022/11/16 17:16:34;;;;;;;77.88;60.92;;;;;;;;;;6233516;28;20052;-83
2022/11/16 17:19:35;;;;;;;71.93;56.58;;;;;;;;;;6236338;28;20737;-83
2022/11/16 17:22:37;;;;;;;128.98;88.07;;;;;;;;;;6230219;28;20406;-84
2022/11/16 17:25:39;;;;;;;118.57;83.35;;;;;;;;;;6240774;28;20064;-83
2022/11/16 17:28:40;;;;;;;131.43;88.45;;;;;;;;;;6223687;28;20033;-84
2022/11/16 17:31:45;;;;;;;138.77;92.97;;;;;;;;;;6220492;28;20053;-83
2022/11/16 17:34:46;;;;;;;141.05;94.95;;;;;;;;;;6244582;28;20052;-84
2022/11/16 17:37:48;;;;;;;126.75;88.18;;;;;;;;;;6244302;28;20045;-84
2022/11/16 17:40:50;;;;;;;119.70;83.55;;;;;;;;;;6239952;28;20068;-84
2022/11/16 17:43:53;;;;;;;138.85;95.00;;;;;;;;;;6227084;28;20056;-83
2022/11/16 17:46:55;;;;;;;117.40;83.05;;;;;;;;;;6238388;28;20048;-82
2022/11/16 17:49:57;;;;;;;100.97;73.05;;;;;;;;;;6236130;28;20045;-84
2022/11/16 17:52:58;;;;;;;80.45;62.03;;;;;;;;;;6242048;28;20419;-84
2022/11/16 17:56:02;;;;;;;91.22;68.25;;;;;;;;;;6246664;28;20062;-84
2022/11/16 17:59:03;;;;;;;100.63;71.55;;;;;;;;;;6237275;28;20132;-84
2022/11/16 18:02:05;;;;;;;105.38;75.88;;;;;;;;;;6246029;28;20045;-84
2022/11/16 18:05:07;;;;;;;129.52;86.45;;;;;;;;;;6243882;28;20061;-84
2022/11/16 18:08:09;;;;;;;114.65;79.28;;;;;;;;;;6221244;28;20037;-84
2022/11/16 18:11:19;;;;;;;108.65;76.10;;;;;;;;;;6218518;28;20091;-83
2022/11/16 18:14:21;;;;;;;103.05;72.68;;;;;;;;;;6218643;28;20523;-83
2022/11/16 18:17:23;;;;;;;129.02;88.82;;;;;;;;;;6232088;28;20203;-84
2022/11/16 18:20:26;;;;;;;145.52;96.43;;;;;;;;;;6231308;28;20045;-84
2022/11/16 18:23:28;;;;;;;;;;;;;;;;;;6213932;28;20037;-84
2022/11/16 18:26:30;;;;;;;87.20;64.63;;;;;;;;;;6232870;28;20063;-83
2022/11/16 18:29:31;;;;;;;78.53;58.55;;;;;;;;;;6226162;28;20419;-83
2022/11/16 18:32:33;;;;;;;87.63;63.13;;;;;;;;;;6231911;28;20045;-83
2022/11/16 18:35:35;;;;;;;96.15;69.70;;;;;;;;;;6237119;28;20136;-84
2022/11/16 18:38:37;;;;;;;49.47;42.38;;;;;;;;;;6215565;28;20492;-85
2022/11/16 18:41:45;;;;;;;46.72;41.40;;;;;;;;;;6212006;28;20682;-83
2022/11/16 18:44:55;;;;;;;89.60;65.82;;;;;;;;;;6231313;28;20065;-84
2022/11/16 18:47:56;;;;;;;85.90;61.13;;;;;;;;;;6234183;28;20056;-84
2022/11/16 18:51:04;;;;;;;82.22;61.03;;;;;;;;;;6237057;28;20044;-84
2022/11/16 18:54:07;;;;;;;87.50;63.22;;;;;;;;;;6230388;28;20041;-84
2022/11/16 18:57:09;;;;;;;46.90;39.70;;;;;;;;;;6233705;28;20050;-84